Leonardo, New Jersey
Current Conditions -  °F | °C
As of 9:35 PM on Wednesday 22 Oct 2014 (Local Time) from KBLM Reporting Station
Overcast Overcast  
Wind Chill: 52°   Ceiling: 2300
Heat Index: 52°   Visibility: 8mi
Dew Point: 45°   Wind: 15mph
Humidity: 76%   Direction: 340°NNW
Pressure: 29.74"   Gusts: 21mph
Location:  40.42°N, 74.06°W
Report Text: KBLM 230135Z AUTO 34013G18KT 8SM SCT016 OVC023 11/07 A2974 RMK AO1 P0009
Loading
Personal Weather Stations






























Interactive Weather Map
Tropical Storm Tracking
New forecast layout! Learn more

10-Day Weather Forecast

Advertisements
Track Severe Weather on mobile